Details From EGHI - Southampton
To EGLF - Farnborough
Flight Number -
Tags decoded
Created
Modified
Stats Distance 31 nm / 57 km
Max Altitude 0 ft / 0 m
Waypoints 8
Social Downloads 0
Likes 0
Share VATSIM

Download

Looking for another format? Having issues loading an existing format? Contact us
Advertisement - Login to hide

Notes

Requested: EGHI SAM01 SAM03 SAM05 SAM07 EGHL ROVUS EGLF

Route

EGHI SAM01 SAM03 SAM05 SAM07 EGHL ROVUS EGLF

ID Type Via Altitude Latitude Longitude Leg Dist Tot Dist Heading (true) Name
O EGHI APT - 0 ft / 0 m 50.95026˚ -1.35681˚ - 0 nm - Southampton
SAM01 FIX - 0 ft / 0 m 50.97054˚ -1.34581˚ 1 nm 1 nm 19° / 19° -
SAM03 FIX - 0 ft / 0 m 51.00187˚ -1.32868˚ 1 nm 3 nm 19° / 19° -
SAM05 FIX - 0 ft / 0 m 51.03334˚ -1.31144˚ 1 nm 5 nm 19° / 19° -
SAM07 FIX - 0 ft / 0 m 51.06481˚ -1.29418˚ 1 nm 7 nm 19° / 19° -
EGHL APT - 0 ft / 0 m 51.18748˚ -1.03156˚ 12 nm 19 nm 53° / 53° Lasham
ROVUS FIX - 0 ft / 0 m 51.25194˚ -0.84778˚ 7 nm 27 nm 61° / 61° -
O EGLF APT - 0 ft / 0 m 51.27570˚ -0.77659˚ 3 nm 30 nm 62° / 62° Farnborough

Altitude Profile

Advertisement - Login to hide

EGHI

Details ICAO EGHI (SOU)
Name Southampton
Region United Kingdom
Timezone Europe/London (UTC+0.0)
Stats Elevation 44 ft / 13 m (AMSL)
Location 50.950255° -1.356806°
Runways 1
Magnetic Variation 0.813° W

METAR

EGHI 142150Z VRB03KT 9999 SCT032 03/02 Q0990

Decode

TAF

Not found

Departure Runways

ID Width Length Bearing (true) Bearing (mag) Surface Threshold Offset Overrun Length
02 121 ft / 37 m 5,650 ft / 1,722 m 19.33° 20.14° Asphalt 240 ft / 73 m 0 ft / 0 m
20 121 ft / 37 m 5,650 ft / 1,722 m 199.34° 200.15° Asphalt 144 ft / 44 m 0 ft / 0 m

EGLF

Details ICAO EGLF (FAB)
Name Farnborough
Region United Kingdom
Timezone Europe/London (UTC+0.0)
Stats Elevation 238 ft / 73 m (AMSL)
Location 51.275704° -0.776589°
Runways 1
Magnetic Variation 0.648° W

METAR

EGLF 142150Z 26008KT CAVOK 03/02 Q0989

Decode

TAF

Not found

Destination Runways

ID Width Length Bearing (true) Bearing (mag) Surface Threshold Offset Overrun Length
06 151 ft / 46 m 7,989 ft / 2,435 m 61.95° 62.60° Asphalt 1,762 ft / 537 m 0 ft / 0 m
24 151 ft / 46 m 7,989 ft / 2,435 m 241.98° 242.63° Asphalt 2,090 ft / 637 m 177 ft / 54 m

Approach Navaids

Runway Type Ident Frequency Range Bearing (true) Bearing (mag) Slope Elevation
06 Localiser IFRG 111.55 MHz 18 nm / 33 km 61.98° 62.63° - 228 ft / 69 m (AMSL)
06 Glidescope IFRG 111.55 MHz 10 nm / 19 km 61.97° 62.61° 3.50° 238 ft / 73 m (AMSL)
06 DME IFRG 111.55 MHz 18 nm / 33 km - - - 234 ft / 71 m (AMSL)
24 Localiser IFNB 111.55 MHz 18 nm / 33 km 241.95° 242.60° - 228 ft / 69 m (AMSL)
24 Glidescope IFNB 111.55 MHz 10 nm / 19 km 241.97° 242.61° 3.50° 238 ft / 73 m (AMSL)
24 DME IFNB 111.55 MHz 18 nm / 33 km - - - 234 ft / 71 m (AMSL)